createdAt,value
2022-11-24T00:00:16.236Z,20.85
2022-11-24T00:07:03.703Z,20.77
2022-11-24T00:13:27.908Z,20.69
2022-11-24T00:19:52.504Z,20.60
2022-11-24T00:26:17.133Z,20.51
2022-11-24T00:32:41.950Z,20.43
2022-11-24T00:39:06.548Z,20.34
2022-11-24T00:45:31.029Z,20.26
2022-11-24T00:51:58.467Z,20.18
2022-11-24T00:58:22.951Z,20.10
2022-11-24T01:04:47.592Z,20.04
2022-11-24T01:11:12.081Z,19.97
2022-11-24T01:17:36.576Z,19.90
2022-11-24T01:24:01.250Z,19.82
2022-11-24T01:30:25.550Z,19.76
2022-11-24T01:36:50.054Z,19.69
2022-11-24T01:43:18.070Z,19.63
2022-11-24T01:49:45.146Z,19.57
2022-11-24T01:56:12.216Z,19.51
2022-11-24T02:02:36.873Z,19.45
2022-11-24T02:09:01.885Z,19.38
2022-11-24T02:15:26.490Z,19.32
2022-11-24T02:21:51.140Z,19.26
2022-11-24T02:28:15.716Z,19.21
2022-11-24T02:34:40.231Z,19.15
2022-11-24T02:41:04.850Z,19.09
2022-11-24T02:47:29.854Z,19.04
2022-11-24T02:53:54.381Z,18.98
2022-11-24T03:00:19.021Z,18.94
2022-11-24T03:06:43.672Z,18.89
2022-11-24T03:13:11.308Z,18.84
2022-11-24T03:19:35.821Z,18.79
2022-11-24T03:26:00.340Z,18.74
2022-11-24T03:32:24.851Z,18.68
2022-11-24T03:38:49.414Z,18.64
2022-11-24T03:45:44.233Z,18.58
2022-11-24T03:52:00.650Z,18.52
2022-11-24T03:58:28.415Z,18.47
2022-11-24T04:04:53.050Z,18.43
2022-11-24T04:11:17.734Z,18.40
2022-11-24T04:17:42.267Z,18.36
2022-11-24T04:24:07.172Z,18.31
2022-11-24T04:30:31.715Z,18.27
2022-11-24T04:36:56.202Z,18.24
2022-11-24T04:43:20.849Z,18.19
2022-11-24T04:49:45.450Z,18.15
2022-11-24T04:56:10.051Z,18.11
2022-11-24T05:02:34.768Z,18.07
2022-11-24T05:09:02.179Z,18.03
2022-11-24T05:15:26.705Z,17.99
2022-11-24T05:21:51.227Z,17.95
2022-11-24T05:28:14.451Z,17.92
2022-11-24T05:34:38.919Z,17.88
2022-11-24T05:41:03.422Z,17.86
2022-11-24T05:47:27.944Z,17.88
2022-11-24T05:53:52.313Z,17.95
2022-11-24T06:00:16.663Z,18.05
2022-11-24T06:06:41.184Z,18.19
2022-11-24T06:13:05.653Z,18.36
2022-11-24T06:19:29.953Z,18.54
2022-11-24T06:25:54.271Z,18.71
2022-11-24T06:32:18.614Z,18.86
2022-11-24T06:38:41.628Z,19.05
2022-11-24T06:45:09.042Z,19.22
2022-11-24T06:51:33.835Z,19.39
2022-11-24T06:57:58.227Z,19.54
2022-11-24T07:04:22.563Z,19.68
2022-11-24T07:10:47.067Z,19.81
2022-11-24T07:17:19.168Z,19.93
2022-11-24T07:23:43.673Z,20.01
2022-11-24T07:30:08.101Z,20.07
2022-11-24T07:36:32.493Z,20.12
2022-11-24T07:42:56.843Z,20.18
2022-11-24T07:49:21.214Z,20.25
2022-11-24T07:55:45.848Z,20.33
2022-11-24T08:02:10.274Z,20.40
2022-11-24T08:08:34.760Z,20.48
2022-11-24T08:14:59.189Z,20.50
2022-11-24T08:21:23.748Z,20.52
2022-11-24T08:27:48.308Z,20.55
2022-11-24T08:34:12.658Z,20.60
2022-11-24T08:40:37.050Z,20.66
2022-11-24T08:47:01.371Z,20.70
2022-11-24T08:53:25.800Z,20.76
2022-11-24T08:59:50.291Z,20.82
2022-11-24T09:06:14.816Z,20.89
2022-11-24T09:12:39.214Z,20.97
2022-11-24T09:19:03.586Z,21.01
2022-11-24T09:25:27.914Z,21.03
2022-11-24T09:31:52.366Z,21.03
2022-11-24T09:38:16.738Z,21.06
2022-11-24T09:44:46.640Z,21.09
2022-11-24T09:51:17.171Z,21.10
2022-11-24T09:57:41.548Z,21.11
2022-11-24T10:04:15.151Z,21.15
2022-11-24T10:10:51.276Z,21.21
2022-11-24T10:17:24.745Z,21.23
2022-11-24T10:24:07.041Z,21.23
2022-11-24T10:30:31.377Z,21.23
2022-11-24T10:36:55.790Z,21.22
2022-11-24T10:43:20.241Z,21.23
2022-11-24T10:49:44.599Z,21.24
2022-11-24T10:56:08.981Z,21.28
2022-11-24T11:02:33.661Z,21.31
2022-11-24T11:09:16.597Z,21.32
2022-11-24T11:15:41.022Z,21.35
2022-11-24T11:22:08.453Z,21.38
2022-11-24T11:28:32.872Z,21.41
2022-11-24T11:34:59.966Z,21.44
2022-11-24T11:41:24.278Z,21.46
2022-11-24T11:47:48.662Z,21.48
2022-11-24T11:54:16.864Z,21.49
2022-11-24T12:00:41.313Z,21.51
2022-11-24T12:07:26.863Z,21.54
2022-11-24T12:14:03.060Z,21.58
2022-11-24T12:20:27.577Z,21.60
2022-11-24T12:27:04.320Z,21.63
2022-11-24T12:33:47.529Z,21.65
2022-11-24T12:40:17.925Z,21.67
2022-11-24T12:46:51.596Z,21.69
2022-11-24T12:53:25.529Z,21.70
2022-11-24T13:00:02.082Z,21.71
2022-11-24T13:06:28.132Z,21.73
2022-11-24T13:12:52.482Z,21.77
2022-11-24T13:19:33.956Z,21.78
2022-11-24T13:26:15.741Z,21.81
2022-11-24T13:32:42.848Z,21.83
2022-11-24T13:39:21.216Z,21.84
2022-11-24T13:45:48.483Z,21.87
2022-11-24T13:52:12.894Z,21.90
2022-11-24T13:58:42.992Z,21.89
2022-11-24T14:05:22.652Z,21.88
2022-11-24T14:11:53.776Z,21.88
2022-11-24T14:18:21.206Z,21.88
2022-11-24T14:24:45.805Z,21.89
2022-11-24T14:31:13.596Z,21.90
2022-11-24T14:37:38.092Z,21.91
2022-11-24T14:44:11.303Z,21.94
2022-11-24T14:50:35.633Z,21.96
2022-11-24T14:57:12.133Z,21.97
2022-11-24T15:03:42.196Z,21.96
2022-11-24T15:10:06.612Z,21.96
2022-11-24T15:16:36.983Z,21.95
2022-11-24T15:23:16.601Z,21.94
2022-11-24T15:29:40.989Z,21.96
2022-11-24T15:36:05.383Z,22.01
2022-11-24T15:42:29.735Z,22.03
2022-11-24T15:48:54.081Z,22.05
2022-11-24T15:55:18.629Z,22.06
2022-11-24T16:01:42.969Z,22.07
2022-11-24T16:08:07.329Z,22.10
2022-11-24T16:14:31.700Z,22.10
2022-11-24T16:20:46.163Z,22.09
2022-11-24T16:27:10.476Z,22.09
2022-11-24T16:33:35.107Z,22.12
2022-11-24T16:39:59.589Z,22.14
2022-11-24T16:46:23.967Z,22.18
2022-11-24T16:52:41.501Z,22.21
2022-11-24T16:59:05.864Z,22.25
2022-11-24T17:05:30.499Z,22.28
2022-11-24T17:11:57.494Z,22.29
2022-11-24T17:18:25.632Z,22.31
2022-11-24T17:24:40.036Z,22.33
2022-11-24T17:31:05.037Z,22.34
2022-11-24T17:37:29.320Z,22.36
2022-11-24T17:43:53.799Z,22.37
2022-11-24T17:50:22.442Z,22.39
2022-11-24T17:56:49.883Z,22.40
2022-11-24T18:03:14.289Z,22.40
2022-11-24T18:09:18.760Z,22.40
2022-11-24T18:15:43.279Z,22.41
2022-11-24T18:22:07.781Z,22.41
2022-11-24T18:28:32.184Z,22.44
2022-11-24T18:34:56.478Z,22.45
2022-11-24T18:41:11.889Z,22.46
2022-11-24T18:47:21.468Z,22.48
2022-11-24T18:53:45.780Z,22.49
2022-11-24T19:00:10.132Z,22.50
2022-11-24T19:06:33.922Z,22.48
2022-11-24T19:12:52.667Z,22.49
2022-11-24T19:19:17.048Z,22.49
2022-11-24T19:25:41.576Z,22.50
2022-11-24T19:32:06.026Z,22.51
2022-11-24T19:38:29.677Z,22.53
2022-11-24T19:44:56.698Z,22.56
2022-11-24T19:51:21.498Z,22.58
2022-11-24T19:57:45.918Z,22.60
2022-11-24T20:04:10.208Z,22.63
2022-11-24T20:10:31.393Z,22.66
2022-11-24T20:16:53.458Z,22.68
2022-11-24T20:23:17.936Z,22.69
2022-11-24T20:29:46.583Z,22.71
2022-11-24T20:36:11.457Z,22.72
2022-11-24T20:42:35.846Z,22.74
2022-11-24T20:49:00.141Z,22.76
2022-11-24T20:55:17.029Z,22.76
2022-11-24T21:01:43.985Z,22.78
2022-11-24T21:08:08.487Z,22.79
2022-11-24T21:14:35.323Z,22.81
2022-11-24T21:21:00.004Z,22.83
2022-11-24T21:27:24.523Z,22.84
2022-11-24T21:33:48.860Z,22.80
2022-11-24T21:40:04.440Z,22.75
2022-11-24T21:46:28.792Z,22.69
2022-11-24T21:52:53.142Z,22.62
2022-11-24T21:59:17.526Z,22.55
2022-11-24T22:05:41.976Z,22.47
2022-11-24T22:12:06.314Z,22.37
2022-11-24T22:18:30.695Z,22.23
2022-11-24T22:24:55.026Z,22.12
2022-11-24T22:31:19.456Z,21.99
2022-11-24T22:37:43.936Z,21.87
2022-11-24T22:44:08.355Z,21.76
2022-11-24T22:50:32.633Z,21.64
2022-11-24T22:56:56.580Z,21.54
2022-11-24T23:03:21.130Z,21.43
2022-11-24T23:09:45.611Z,21.33
2022-11-24T23:16:10.206Z,21.23
2022-11-24T23:22:34.750Z,21.14
2022-11-24T23:28:59.136Z,21.05
2022-11-24T23:35:23.454Z,20.97
2022-11-24T23:41:47.779Z,20.87
2022-11-24T23:48:12.153Z,20.79
